createdAt,value
2024-03-17T00:00:33.573Z,5.76
2024-03-17T00:01:33.699Z,5.79
2024-03-17T00:02:33.773Z,5.79
2024-03-17T00:03:33.818Z,5.76
2024-03-17T00:04:33.917Z,5.74
2024-03-17T00:05:33.979Z,5.76
2024-03-17T00:06:34.095Z,5.78
2024-03-17T00:07:34.181Z,5.78
2024-03-17T00:08:34.217Z,5.76
2024-03-17T00:09:34.340Z,5.76
2024-03-17T00:10:34.398Z,5.73
2024-03-17T00:11:34.490Z,5.71
2024-03-17T00:12:34.558Z,5.73
2024-03-17T00:13:34.624Z,5.70
2024-03-17T00:14:34.717Z,5.70
2024-03-17T00:15:34.768Z,5.69
2024-03-17T00:16:34.904Z,5.69
2024-03-17T00:17:34.910Z,5.67
2024-03-17T00:18:34.991Z,5.69
2024-03-17T00:19:35.054Z,5.66
2024-03-17T00:20:35.161Z,5.63
2024-03-17T00:21:35.334Z,5.63
2024-03-17T00:22:35.337Z,5.61
2024-03-17T00:23:35.398Z,5.58
2024-03-17T00:24:35.481Z,5.56
2024-03-17T00:25:35.564Z,5.58
2024-03-17T00:26:35.668Z,5.53
2024-03-17T00:27:35.706Z,5.52
2024-03-17T00:28:35.802Z,5.48
2024-03-17T00:29:35.860Z,5.48
2024-03-17T00:30:36.963Z,5.48
2024-03-17T00:31:36.072Z,5.49
2024-03-17T00:32:36.124Z,5.51
2024-03-17T00:33:36.259Z,5.46
2024-03-17T00:34:36.299Z,5.46
2024-03-17T00:35:36.368Z,5.43
2024-03-17T00:36:36.601Z,5.45
2024-03-17T00:37:36.614Z,5.43
2024-03-17T00:38:36.621Z,5.45
2024-03-17T00:39:36.693Z,5.46
2024-03-17T00:40:36.777Z,5.49
2024-03-17T00:41:36.895Z,5.49
2024-03-17T00:42:36.970Z,5.53
2024-03-17T00:43:37.026Z,5.53
2024-03-17T00:44:37.115Z,5.49
2024-03-17T00:45:37.184Z,5.48
2024-03-17T00:46:37.308Z,5.48
2024-03-17T00:47:37.339Z,5.48
2024-03-17T00:48:37.428Z,5.46
2024-03-17T00:49:37.502Z,5.48
2024-03-17T00:50:37.598Z,5.48
2024-03-17T00:51:37.704Z,5.43
2024-03-17T00:52:37.763Z,5.42
2024-03-17T00:53:37.822Z,5.43
2024-03-17T00:54:37.912Z,5.38
2024-03-17T00:55:38.002Z,5.37
2024-03-17T00:56:38.110Z,5.35
2024-03-17T00:57:38.171Z,5.33
2024-03-17T00:58:38.257Z,5.33
2024-03-17T00:59:38.397Z,5.37
2024-03-17T01:00:38.436Z,5.35
2024-03-17T01:01:38.554Z,5.37
2024-03-17T01:02:38.600Z,5.37
2024-03-17T01:03:38.689Z,5.37
2024-03-17T01:04:38.763Z,5.38
2024-03-17T01:05:38.846Z,5.34
2024-03-17T01:06:38.962Z,5.31
2024-03-17T01:07:39.036Z,5.27
2024-03-17T01:08:39.114Z,5.27
2024-03-17T01:09:39.205Z,5.30
2024-03-17T01:10:39.285Z,5.27
2024-03-17T01:11:39.400Z,5.26
2024-03-17T01:12:39.474Z,5.24
2024-03-17T01:13:39.538Z,5.20
2024-03-17T01:14:39.635Z,5.20
2024-03-17T01:15:39.716Z,5.17
2024-03-17T01:16:39.843Z,5.17
2024-03-17T01:17:39.904Z,5.15
2024-03-17T01:18:40.019Z,5.15
2024-03-17T01:19:40.094Z,5.15
2024-03-17T01:20:40.210Z,5.16
2024-03-17T01:21:40.310Z,5.15
2024-03-17T01:22:40.377Z,5.16
2024-03-17T01:23:40.459Z,5.19
2024-03-17T01:24:40.567Z,5.19
2024-03-17T01:25:40.645Z,5.17
2024-03-17T01:26:40.788Z,5.15
2024-03-17T01:27:40.835Z,5.13
2024-03-17T01:28:40.922Z,5.10
2024-03-17T01:29:41.016Z,5.10
2024-03-17T01:30:41.111Z,5.13
2024-03-17T01:31:41.220Z,5.15
2024-03-17T01:32:41.295Z,5.15
2024-03-17T01:33:41.398Z,5.15
2024-03-17T01:34:41.470Z,5.15
2024-03-17T01:35:41.564Z,5.13
2024-03-17T01:36:41.691Z,5.13
2024-03-17T01:37:42.470Z,5.15
2024-03-17T01:38:41.860Z,5.15
2024-03-17T01:39:41.929Z,5.16
2024-03-17T01:40:42.037Z,5.17
2024-03-17T01:41:42.139Z,5.15
2024-03-17T01:42:42.217Z,5.17
2024-03-17T01:43:42.289Z,5.15
2024-03-17T01:44:42.396Z,5.16
2024-03-17T01:45:42.482Z,5.17
2024-03-17T01:46:42.602Z,5.15
2024-03-17T01:47:42.661Z,5.15
2024-03-17T01:48:42.758Z,5.16
2024-03-17T01:49:42.831Z,5.16
2024-03-17T01:50:42.941Z,5.16
2024-03-17T01:51:43.053Z,5.15
2024-03-17T01:52:43.114Z,5.12
2024-03-17T01:53:43.196Z,5.10
2024-03-17T01:54:43.289Z,5.09
2024-03-17T01:55:43.389Z,5.10
2024-03-17T01:56:43.494Z,5.06
2024-03-17T01:57:43.562Z,5.00
2024-03-17T01:58:43.671Z,4.98
2024-03-17T01:59:43.744Z,4.95
2024-03-17T02:00:43.855Z,4.92
2024-03-17T02:01:43.965Z,4.91
2024-03-17T02:02:44.061Z,4.92
2024-03-17T02:03:44.130Z,4.92
2024-03-17T02:04:44.237Z,4.95
2024-03-17T02:05:44.341Z,4.98
2024-03-17T02:06:44.456Z,4.98
2024-03-17T02:07:44.515Z,5.01
2024-03-17T02:08:44.625Z,5.00
2024-03-17T02:09:44.705Z,5.03
2024-03-17T02:10:44.808Z,5.03
2024-03-17T02:11:44.923Z,5.00
2024-03-17T02:12:45.019Z,4.98
2024-03-17T02:13:45.070Z,4.98
2024-03-17T02:14:45.156Z,4.95
2024-03-17T02:15:45.245Z,4.94
2024-03-17T02:16:45.383Z,4.97
2024-03-17T02:17:45.425Z,4.95
2024-03-17T02:18:45.527Z,4.95
2024-03-17T02:19:45.614Z,4.95
2024-03-17T02:20:45.710Z,4.94
2024-03-17T02:21:45.807Z,4.94
2024-03-17T02:22:45.893Z,4.94
2024-03-17T02:23:45.962Z,4.95
2024-03-17T02:24:46.063Z,4.95
2024-03-17T02:25:46.144Z,4.97
2024-03-17T02:26:46.283Z,4.94
2024-03-17T02:27:46.336Z,4.95
2024-03-17T02:28:46.439Z,4.94
2024-03-17T02:29:46.535Z,4.94
2024-03-17T02:30:46.620Z,4.92
2024-03-17T02:31:46.728Z,4.97
2024-03-17T02:32:46.823Z,4.95
2024-03-17T02:33:46.877Z,4.95
2024-03-17T02:34:47.001Z,4.95
2024-03-17T02:35:47.063Z,4.95
2024-03-17T02:36:47.191Z,4.97
2024-03-17T02:37:47.257Z,4.97
2024-03-17T02:38:47.354Z,4.95
2024-03-17T02:39:47.433Z,4.95
2024-03-17T02:40:47.570Z,4.94
2024-03-17T02:41:47.643Z,4.91
2024-03-17T02:42:47.735Z,4.88
2024-03-17T02:43:47.792Z,4.85
2024-03-17T02:44:47.892Z,4.83
2024-03-17T02:45:47.974Z,4.87
2024-03-17T02:46:48.084Z,4.85
2024-03-17T02:47:48.149Z,4.85
2024-03-17T02:48:48.227Z,4.82
2024-03-17T02:49:48.311Z,4.79
2024-03-17T02:50:48.427Z,4.78
2024-03-17T02:51:48.524Z,4.79
2024-03-17T02:52:48.566Z,4.78
2024-03-17T02:53:48.653Z,4.75
2024-03-17T02:54:56.454Z,4.76
2024-03-17T02:55:48.847Z,4.76
2024-03-17T02:56:48.970Z,4.76
2024-03-17T02:57:49.022Z,4.71
2024-03-17T02:58:49.121Z,4.68
2024-03-17T02:59:49.206Z,4.66
2024-03-17T03:00:49.348Z,4.64
2024-03-17T03:01:49.412Z,4.61
2024-03-17T03:02:49.512Z,4.58
2024-03-17T03:03:49.608Z,4.57
2024-03-17T03:04:49.692Z,4.54
2024-03-17T03:05:49.777Z,4.53
2024-03-17T03:06:49.905Z,4.51
2024-03-17T03:07:49.956Z,4.55
2024-03-17T03:08:50.062Z,4.55
2024-03-17T03:09:50.167Z,4.53
2024-03-17T03:10:50.276Z,4.54
2024-03-17T03:11:50.381Z,4.51
2024-03-17T03:12:50.451Z,4.54
2024-03-17T03:13:50.535Z,4.50
2024-03-17T03:14:50.661Z,4.50
2024-03-17T03:15:50.738Z,4.50
2024-03-17T03:16:50.856Z,4.50
2024-03-17T03:17:50.912Z,4.50
2024-03-17T03:18:51.024Z,4.50
2024-03-17T03:19:51.101Z,4.53
2024-03-17T03:20:51.207Z,4.53
2024-03-17T03:21:51.330Z,4.51
2024-03-17T03:22:51.404Z,4.53
2024-03-17T03:23:51.491Z,4.51
2024-03-17T03:24:51.625Z,4.51
2024-03-17T03:25:51.666Z,4.50
2024-03-17T03:26:51.845Z,4.50
2024-03-17T03:27:51.865Z,4.50
2024-03-17T03:28:51.982Z,4.48
2024-03-17T03:29:52.082Z,4.47
2024-03-17T03:30:52.198Z,4.45
2024-03-17T03:31:52.306Z,4.45
2024-03-17T03:32:52.387Z,4.45
2024-03-17T03:33:52.482Z,4.43
2024-03-17T03:34:52.607Z,4.42
2024-03-17T03:35:52.696Z,4.37
2024-03-17T03:36:52.851Z,4.37
2024-03-17T03:37:52.887Z,4.32
2024-03-17T03:38:52.975Z,4.27
2024-03-17T03:39:53.083Z,4.24
2024-03-17T03:40:53.188Z,4.18
2024-03-17T03:41:53.307Z,4.17
2024-03-17T03:42:53.387Z,4.19
2024-03-17T03:43:53.483Z,4.17
2024-03-17T03:44:53.597Z,4.17
2024-03-17T03:45:53.664Z,4.17
2024-03-17T03:46:53.795Z,4.18
2024-03-17T03:47:53.851Z,4.24
2024-03-17T03:48:53.971Z,4.25
2024-03-17T03:49:54.042Z,4.25
2024-03-17T03:50:54.156Z,4.24
2024-03-17T03:51:54.257Z,4.25
2024-03-17T03:52:54.362Z,4.30
2024-03-17T03:53:54.428Z,4.32
2024-03-17T03:54:54.550Z,4.33
2024-03-17T03:55:54.623Z,4.27
2024-03-17T03:56:54.797Z,4.22
2024-03-17T03:57:54.825Z,4.21
2024-03-17T03:58:54.927Z,4.17
2024-03-17T03:59:55.029Z,4.15
2024-03-17T04:00:55.143Z,4.17
2024-03-17T04:01:55.266Z,4.18
2024-03-17T04:02:55.359Z,4.18
2024-03-17T04:03:55.451Z,4.17
2024-03-17T04:04:55.557Z,4.14
2024-03-17T04:05:55.647Z,4.10
2024-03-17T04:06:55.799Z,4.10
2024-03-17T04:07:55.855Z,4.14
2024-03-17T04:08:55.967Z,4.15
2024-03-17T04:09:56.081Z,4.15
2024-03-17T04:10:56.176Z,4.14
2024-03-17T04:11:56.322Z,4.15
2024-03-17T04:12:56.392Z,4.14
2024-03-17T04:13:56.511Z,4.12
2024-03-17T04:14:56.622Z,4.11
2024-03-17T04:15:56.716Z,4.07
2024-03-17T04:16:56.853Z,4.06
2024-03-17T04:17:56.930Z,4.03
2024-03-17T04:18:57.039Z,3.99
2024-03-17T04:19:57.147Z,3.96
2024-03-17T04:20:57.258Z,3.94
2024-03-17T04:21:57.390Z,3.96
2024-03-17T04:22:57.447Z,3.94
2024-03-17T04:23:57.571Z,3.96
2024-03-17T04:24:57.694Z,3.97
2024-03-17T04:25:57.824Z,3.97
2024-03-17T04:26:57.923Z,3.96
2024-03-17T04:27:57.994Z,3.97
2024-03-17T04:28:58.127Z,3.99
2024-03-17T04:29:58.219Z,4.00
2024-03-17T04:30:58.335Z,3.97
2024-03-17T04:31:58.455Z,3.94
2024-03-17T04:32:58.592Z,3.93
2024-03-17T04:33:58.651Z,3.89
2024-03-17T04:34:59.139Z,3.89
2024-03-17T04:36:00.071Z,3.89
2024-03-17T04:36:59.049Z,3.93
2024-03-17T04:37:59.135Z,3.94
2024-03-17T04:38:59.243Z,3.93
2024-03-17T04:39:59.334Z,3.93
2024-03-17T04:40:59.520Z,3.92
2024-03-17T04:41:59.679Z,3.93
2024-03-17T04:42:59.666Z,3.94
2024-03-17T04:43:59.785Z,3.89
2024-03-17T04:44:59.895Z,3.92
2024-03-17T04:46:00.005Z,3.89
2024-03-17T04:47:00.160Z,3.89
2024-03-17T04:48:00.225Z,3.86
2024-03-17T04:49:00.354Z,3.85
2024-03-17T04:50:00.450Z,3.85
2024-03-17T04:51:00.553Z,3.82
2024-03-17T04:52:00.693Z,3.81
2024-03-17T04:53:00.760Z,3.79
2024-03-17T04:54:00.873Z,3.81
2024-03-17T04:55:00.976Z,3.82
2024-03-17T04:56:01.103Z,3.84
2024-03-17T04:57:01.269Z,3.85
2024-03-17T04:58:01.397Z,3.85
2024-03-17T04:59:01.430Z,3.85
2024-03-17T05:00:01.538Z,3.85
2024-03-17T05:01:01.651Z,3.79
2024-03-17T05:02:01.802Z,3.75
2024-03-17T05:03:01.890Z,3.75
2024-03-17T05:04:02.003Z,3.74
2024-03-17T05:05:02.107Z,3.76
2024-03-17T05:06:02.203Z,3.76
2024-03-17T05:07:02.364Z,3.78
2024-03-17T05:08:02.452Z,3.78
2024-03-17T05:09:02.564Z,3.79
2024-03-17T05:10:06.097Z,3.79
2024-03-17T05:11:02.825Z,3.81
2024-03-17T05:12:02.914Z,3.81
2024-03-17T05:13:03.007Z,3.84
2024-03-17T05:14:03.143Z,3.81
2024-03-17T05:15:03.251Z,3.79
2024-03-17T05:16:03.358Z,3.75
2024-03-17T05:17:03.494Z,3.75
2024-03-17T05:18:03.578Z,3.75
2024-03-17T05:19:03.722Z,3.76
2024-03-17T05:20:03.820Z,3.75
2024-03-17T05:21:03.940Z,3.75
2024-03-17T05:22:04.062Z,3.74
2024-03-17T05:23:04.164Z,3.75
2024-03-17T05:24:04.268Z,3.72
2024-03-17T05:25:04.397Z,3.74
2024-03-17T05:26:04.505Z,3.68
2024-03-17T05:27:04.634Z,3.72
2024-03-17T05:28:04.756Z,3.68
2024-03-17T05:29:04.855Z,3.68
2024-03-17T05:30:04.941Z,3.70
2024-03-17T05:31:05.067Z,3.66
2024-03-17T05:32:05.199Z,3.64
2024-03-17T05:33:05.314Z,3.63
2024-03-17T05:34:05.428Z,3.63
2024-03-17T05:35:05.542Z,3.60
2024-03-17T05:36:05.637Z,3.63
2024-03-17T05:37:08.194Z,3.66
2024-03-17T05:38:05.878Z,3.67
2024-03-17T05:39:06.042Z,3.68
2024-03-17T05:40:06.121Z,3.70
2024-03-17T05:41:06.269Z,3.74
2024-03-17T05:42:06.377Z,3.75
2024-03-17T05:43:06.473Z,3.76
2024-03-17T05:44:06.585Z,3.81
2024-03-17T05:45:06.710Z,3.81
2024-03-17T05:46:06.848Z,3.82
2024-03-17T05:47:06.966Z,3.81
2024-03-17T05:48:07.057Z,3.82
2024-03-17T05:49:07.208Z,3.81
2024-03-17T05:50:07.299Z,3.81
2024-03-17T05:51:07.424Z,3.81
2024-03-17T05:52:07.571Z,3.79
2024-03-17T05:53:07.667Z,3.79
2024-03-17T05:54:07.761Z,3.79
2024-03-17T05:55:07.902Z,3.74
2024-03-17T05:56:07.990Z,3.75
2024-03-17T05:57:08.153Z,3.76
2024-03-17T05:58:09.036Z,3.75
2024-03-17T05:59:08.344Z,3.74
2024-03-17T06:00:08.443Z,3.75
2024-03-17T06:01:08.571Z,3.76
2024-03-17T06:02:08.697Z,3.78
2024-03-17T06:03:08.798Z,3.76
2024-03-17T06:04:09.044Z,3.75
2024-03-17T06:05:09.032Z,3.78
2024-03-17T06:06:09.138Z,3.78
2024-03-17T06:07:09.323Z,3.81
2024-03-17T06:08:09.398Z,3.79
2024-03-17T06:09:09.487Z,3.81
2024-03-17T06:10:11.865Z,3.79
2024-03-17T06:11:09.733Z,3.81
2024-03-17T06:12:09.855Z,3.81
2024-03-17T06:13:09.972Z,3.81
2024-03-17T06:14:10.071Z,3.82
2024-03-17T06:15:10.168Z,3.84
2024-03-17T06:16:10.341Z,3.84
2024-03-17T06:17:10.431Z,3.86
2024-03-17T06:18:10.549Z,3.85
2024-03-17T06:19:10.664Z,3.85
2024-03-17T06:20:10.755Z,3.86
2024-03-17T06:21:10.875Z,3.86
2024-03-17T06:22:11.025Z,3.86
2024-03-17T06:23:11.091Z,3.85
2024-03-17T06:24:11.230Z,3.84
2024-03-17T06:25:11.368Z,3.82
2024-03-17T06:26:11.446Z,3.82
2024-03-17T06:27:11.604Z,3.85
2024-03-17T06:28:11.724Z,3.86
2024-03-17T06:29:11.792Z,3.88
2024-03-17T06:30:11.908Z,3.89
2024-03-17T06:31:12.062Z,3.92
2024-03-17T06:32:12.179Z,3.89
2024-03-17T06:33:12.283Z,3.92
2024-03-17T06:34:12.385Z,3.88
2024-03-17T06:35:12.525Z,3.86
2024-03-17T06:36:12.608Z,3.86
2024-03-17T06:37:12.832Z,3.88
2024-03-17T06:38:12.848Z,3.88
2024-03-17T06:39:12.961Z,3.93
2024-03-17T06:40:13.150Z,3.96
2024-03-17T06:41:13.212Z,3.99
2024-03-17T06:42:13.336Z,4.00
2024-03-17T06:43:13.438Z,4.00
2024-03-17T06:44:13.548Z,4.04
2024-03-17T06:45:13.664Z,4.03
2024-03-17T06:46:13.796Z,4.02
2024-03-17T06:47:13.910Z,4.04
2024-03-17T06:48:13.995Z,4.10
2024-03-17T06:49:14.134Z,4.17
2024-03-17T06:50:14.226Z,4.21
2024-03-17T06:51:14.356Z,4.25
2024-03-17T06:52:14.520Z,4.27
2024-03-17T06:53:14.585Z,4.30
2024-03-17T06:54:14.698Z,4.30
2024-03-17T06:55:14.852Z,4.33
2024-03-17T06:56:14.919Z,4.36
2024-03-17T06:57:15.105Z,4.37
2024-03-17T06:58:15.180Z,4.43
2024-03-17T06:59:15.286Z,4.45
2024-03-17T07:00:15.407Z,4.53
2024-03-17T07:01:15.540Z,4.57
2024-03-17T07:02:15.646Z,4.60
2024-03-17T07:03:15.732Z,4.64
2024-03-17T07:04:15.856Z,4.68
2024-03-17T07:05:15.925Z,4.69
2024-03-17T07:06:16.044Z,4.68
2024-03-17T07:07:16.204Z,4.71
2024-03-17T07:08:16.245Z,4.73
2024-03-17T07:09:16.342Z,4.69
2024-03-17T07:10:16.452Z,4.69
2024-03-17T07:11:16.571Z,4.69
2024-03-17T07:12:16.670Z,4.64
2024-03-17T07:13:16.833Z,4.68
2024-03-17T07:14:16.860Z,4.69
2024-03-17T07:15:16.985Z,4.72
2024-03-17T07:16:17.098Z,4.72
2024-03-17T07:17:17.206Z,4.76
2024-03-17T07:18:17.310Z,4.78
2024-03-17T07:19:17.896Z,4.79
2024-03-17T07:20:17.533Z,4.79
2024-03-17T07:21:17.622Z,4.76
2024-03-17T07:22:17.776Z,4.78
2024-03-17T07:23:17.842Z,4.82
2024-03-17T07:24:17.942Z,4.78
2024-03-17T07:25:18.047Z,4.79
2024-03-17T07:26:18.142Z,4.82
2024-03-17T07:27:18.267Z,4.87
2024-03-17T07:28:18.348Z,4.85
2024-03-17T07:29:18.460Z,4.79
2024-03-17T07:30:18.559Z,4.83
2024-03-17T07:31:18.675Z,4.87
2024-03-17T07:32:18.788Z,4.90
2024-03-17T07:33:18.882Z,4.91
2024-03-17T07:34:18.966Z,4.95
2024-03-17T07:35:19.072Z,5.01
2024-03-17T07:36:19.177Z,5.05
2024-03-17T07:37:19.321Z,5.09
2024-03-17T07:38:19.376Z,5.15
2024-03-17T07:39:19.490Z,5.20
2024-03-17T07:40:19.573Z,5.24
2024-03-17T07:41:19.709Z,5.31
2024-03-17T07:42:19.807Z,5.35
2024-03-17T07:43:19.903Z,5.37
2024-03-17T07:44:19.984Z,5.38
2024-03-17T07:45:20.147Z,5.38
2024-03-17T07:46:20.212Z,5.48
2024-03-17T07:47:20.343Z,5.45
2024-03-17T07:48:20.388Z,5.45
2024-03-17T07:49:20.490Z,5.43
2024-03-17T07:50:20.570Z,5.49
2024-03-17T07:51:20.676Z,5.48
2024-03-17T07:52:20.788Z,5.49
2024-03-17T07:53:20.897Z,5.51
2024-03-17T07:54:20.951Z,5.56
2024-03-17T07:55:21.042Z,5.63
2024-03-17T07:56:21.183Z,5.66
2024-03-17T07:57:21.262Z,5.66
2024-03-17T07:58:21.358Z,5.61
2024-03-17T07:59:21.436Z,5.61
2024-03-17T08:00:21.549Z,5.66
2024-03-17T08:01:21.662Z,5.67
2024-03-17T08:02:21.733Z,5.76
2024-03-17T08:03:21.846Z,5.79
2024-03-17T08:04:21.897Z,5.81
2024-03-17T08:05:22.007Z,5.82
2024-03-17T08:06:22.096Z,5.85
2024-03-17T08:07:22.224Z,5.89
2024-03-17T08:08:22.272Z,5.89
2024-03-17T08:09:22.368Z,5.88
2024-03-17T08:10:22.445Z,5.94
2024-03-17T08:11:22.548Z,5.99
2024-03-17T08:12:22.633Z,5.99
2024-03-17T08:13:22.703Z,6.06
2024-03-17T08:14:22.794Z,6.12
2024-03-17T08:15:22.878Z,6.12
2024-03-17T08:16:22.973Z,6.21
2024-03-17T08:17:23.067Z,6.28
2024-03-17T08:18:23.117Z,6.33
2024-03-17T08:19:23.218Z,6.40
2024-03-17T08:20:23.296Z,6.49
2024-03-17T08:21:23.393Z,6.61
2024-03-17T08:22:23.477Z,6.64
2024-03-17T08:23:23.566Z,6.62
2024-03-17T08:24:23.626Z,6.54
2024-03-17T08:25:23.716Z,6.50
2024-03-17T08:26:23.772Z,6.49
2024-03-17T08:27:23.880Z,6.55
2024-03-17T08:28:23.915Z,6.61
2024-03-17T08:29:24.011Z,6.59
2024-03-17T08:30:26.881Z,6.61
2024-03-17T08:31:24.169Z,6.62
2024-03-17T08:32:24.245Z,6.62
2024-03-17T08:33:24.287Z,6.64
2024-03-17T08:34:24.376Z,6.64
2024-03-17T08:35:24.449Z,6.65
2024-03-17T08:36:24.514Z,6.68
2024-03-17T08:37:24.612Z,6.72
2024-03-17T08:38:24.666Z,6.67
2024-03-17T08:39:24.727Z,6.65
2024-03-17T08:40:24.796Z,6.65
2024-03-17T08:41:24.864Z,6.68
2024-03-17T08:42:24.952Z,6.69
2024-03-17T08:43:24.996Z,6.69
2024-03-17T08:44:25.471Z,6.67
2024-03-17T08:45:26.922Z,6.67
2024-03-17T08:46:25.206Z,6.65
2024-03-17T08:47:25.286Z,6.67
2024-03-17T08:48:25.379Z,6.62
2024-03-17T08:49:25.422Z,6.61
2024-03-17T08:50:25.494Z,6.58
2024-03-17T08:51:25.547Z,6.55
2024-03-17T08:52:25.684Z,6.41
2024-03-17T08:53:25.712Z,6.40
2024-03-17T08:54:25.795Z,6.41
2024-03-17T08:55:25.836Z,6.44
2024-03-17T08:56:25.921Z,6.47
2024-03-17T08:57:25.989Z,6.50
2024-03-17T08:58:26.082Z,6.51
2024-03-17T08:59:26.130Z,6.50
2024-03-17T09:00:26.202Z,6.50
2024-03-17T09:01:26.272Z,6.49
2024-03-17T09:02:26.324Z,6.54
2024-03-17T09:03:26.435Z,6.51
2024-03-17T09:04:26.467Z,6.50
2024-03-17T09:05:26.552Z,6.49
2024-03-17T09:06:26.612Z,6.50
2024-03-17T09:07:26.695Z,6.55
2024-03-17T09:08:26.789Z,6.62
2024-03-17T09:09:26.872Z,6.68
2024-03-17T09:10:26.895Z,6.79
2024-03-17T09:11:26.970Z,6.84
2024-03-17T09:12:27.041Z,6.87
2024-03-17T09:13:27.199Z,6.83
2024-03-17T09:14:27.156Z,6.86
2024-03-17T09:15:27.224Z,6.89
2024-03-17T09:16:27.816Z,6.83
2024-03-17T09:17:27.345Z,6.77
2024-03-17T09:18:27.436Z,6.76
2024-03-17T09:19:27.479Z,6.73
2024-03-17T09:20:27.544Z,6.76
2024-03-17T09:21:27.614Z,6.73
2024-03-17T09:22:27.727Z,6.76
2024-03-17T09:23:27.774Z,6.83
2024-03-17T09:24:27.803Z,6.92
2024-03-17T09:25:27.877Z,7.05
2024-03-17T09:26:27.940Z,7.20
2024-03-17T09:27:28.041Z,7.33
2024-03-17T09:28:28.094Z,7.44
2024-03-17T09:29:28.120Z,7.55
2024-03-17T09:30:28.215Z,7.71
2024-03-17T09:31:28.269Z,7.80
2024-03-17T09:32:28.333Z,7.77
2024-03-17T09:33:28.407Z,7.85
2024-03-17T09:34:28.434Z,7.82
2024-03-17T09:35:28.505Z,7.81
2024-03-17T09:36:28.537Z,7.81
2024-03-17T09:37:28.599Z,7.80
2024-03-17T09:38:28.679Z,7.86
2024-03-17T09:39:28.718Z,7.88
2024-03-17T09:40:28.785Z,7.82
2024-03-17T09:41:28.822Z,7.81
2024-03-17T09:42:28.885Z,7.77
2024-03-17T09:43:28.961Z,7.80
2024-03-17T09:44:28.988Z,7.81
2024-03-17T09:45:29.040Z,7.81
2024-03-17T09:46:29.111Z,7.81
2024-03-17T09:47:29.178Z,7.82
2024-03-17T09:48:29.208Z,7.86
2024-03-17T09:49:29.266Z,7.92
2024-03-17T09:50:29.364Z,7.93
2024-03-17T09:51:29.413Z,7.85
2024-03-17T09:52:29.434Z,7.77
2024-03-17T09:53:29.531Z,7.72
2024-03-17T09:54:29.563Z,7.53
2024-03-17T09:55:29.601Z,7.38
2024-03-17T09:56:29.641Z,7.34
2024-03-17T09:57:29.716Z,7.23
2024-03-17T09:58:29.816Z,7.23
2024-03-17T09:59:29.833Z,7.26
2024-03-17T10:00:29.865Z,7.28
2024-03-17T10:01:29.932Z,7.30
2024-03-17T10:02:29.965Z,7.36
2024-03-17T10:03:30.053Z,7.37
2024-03-17T10:04:30.103Z,7.38
2024-03-17T10:05:30.168Z,7.40
2024-03-17T10:06:30.236Z,7.36
2024-03-17T10:07:30.320Z,7.31
2024-03-17T10:08:30.332Z,7.30
2024-03-17T10:09:30.716Z,7.26
2024-03-17T10:10:30.387Z,7.23
2024-03-17T10:11:30.490Z,7.19
2024-03-17T10:12:30.519Z,7.25
2024-03-17T10:13:30.604Z,7.25
2024-03-17T10:14:30.624Z,7.26
2024-03-17T10:15:30.681Z,7.31
2024-03-17T10:16:30.731Z,7.33
2024-03-17T10:17:30.772Z,7.44
2024-03-17T10:18:30.868Z,7.58
2024-03-17T10:19:32.438Z,7.68
2024-03-17T10:20:30.997Z,7.78
2024-03-17T10:21:31.016Z,7.70
2024-03-17T10:22:31.035Z,7.62
2024-03-17T10:23:31.116Z,7.56
2024-03-17T10:24:31.169Z,7.56
2024-03-17T10:25:31.236Z,7.55
2024-03-17T10:26:31.245Z,7.55
2024-03-17T10:27:31.292Z,7.55
2024-03-17T10:28:32.109Z,7.58
2024-03-17T10:29:31.444Z,7.59
2024-03-17T10:30:31.440Z,7.61
2024-03-17T10:31:31.517Z,7.59
2024-03-17T10:32:31.570Z,7.59
2024-03-17T10:33:31.661Z,7.63
2024-03-17T10:34:31.684Z,7.68
2024-03-17T10:35:33.438Z,7.63
2024-03-17T10:36:31.890Z,7.59
2024-03-17T10:37:31.970Z,7.58
2024-03-17T10:38:31.906Z,7.58
2024-03-17T10:39:31.930Z,7.61
2024-03-17T10:40:31.987Z,7.62
2024-03-17T10:41:32.009Z,7.62
2024-03-17T10:42:32.054Z,7.56
2024-03-17T10:43:32.137Z,7.53
2024-03-17T10:44:32.156Z,7.51
2024-03-17T10:45:32.212Z,7.51
2024-03-17T10:46:38.549Z,7.52
2024-03-17T10:47:32.301Z,7.55
2024-03-17T10:48:32.355Z,7.55
2024-03-17T10:49:32.406Z,7.56
2024-03-17T10:50:32.429Z,7.58
2024-03-17T10:51:32.487Z,7.59
2024-03-17T10:52:41.029Z,7.58
2024-03-17T10:53:32.600Z,7.59
2024-03-17T10:54:32.628Z,7.61
2024-03-17T10:55:32.722Z,7.70
2024-03-17T10:56:32.743Z,7.74
2024-03-17T10:57:32.813Z,7.75
2024-03-17T10:58:32.861Z,7.80
2024-03-17T10:59:32.906Z,7.89
2024-03-17T11:00:32.961Z,7.89
2024-03-17T11:01:33.009Z,7.95
2024-03-17T11:02:33.060Z,8.08
2024-03-17T11:03:33.117Z,8.20
2024-03-17T11:04:33.142Z,8.35
2024-03-17T11:05:33.232Z,8.47
2024-03-17T11:06:33.243Z,8.50
2024-03-17T11:07:33.298Z,8.54
2024-03-17T11:08:33.399Z,8.61
2024-03-17T11:09:33.381Z,8.65
2024-03-17T11:10:33.428Z,8.69
2024-03-17T11:11:33.495Z,8.74
2024-03-17T11:12:33.509Z,8.77
2024-03-17T11:13:33.630Z,8.77
2024-03-17T11:14:33.608Z,8.72
2024-03-17T11:15:33.658Z,8.66
2024-03-17T11:16:33.705Z,8.66
2024-03-17T11:17:33.733Z,8.65
2024-03-17T11:18:33.782Z,8.66
2024-03-17T11:19:33.807Z,8.56
2024-03-17T11:20:33.841Z,8.50
2024-03-17T11:21:33.895Z,8.46
2024-03-17T11:22:33.962Z,8.47
2024-03-17T11:23:33.989Z,8.48
2024-03-17T11:24:33.973Z,8.51
2024-03-17T11:25:34.034Z,8.56
2024-03-17T11:26:34.051Z,8.65
2024-03-17T11:27:34.105Z,8.72
2024-03-17T11:28:34.150Z,8.79
2024-03-17T11:29:34.171Z,8.80
2024-03-17T11:30:34.206Z,8.80
2024-03-17T11:31:34.295Z,8.82
2024-03-17T11:32:34.306Z,8.77
2024-03-17T11:33:34.346Z,8.68
2024-03-17T11:34:34.360Z,8.66
2024-03-17T11:35:34.466Z,8.69
2024-03-17T11:36:34.410Z,8.71
2024-03-17T11:37:34.444Z,8.79
2024-03-17T11:38:34.493Z,8.74
2024-03-17T11:39:34.528Z,8.77
2024-03-17T11:40:34.542Z,8.83
2024-03-17T11:41:34.604Z,8.83
2024-03-17T11:42:34.621Z,8.86
2024-03-17T11:43:34.675Z,8.87
2024-03-17T11:44:34.704Z,8.83
2024-03-17T11:45:34.735Z,8.72
2024-03-17T11:46:34.794Z,8.72
2024-03-17T11:47:34.820Z,8.77
2024-03-17T11:48:34.857Z,8.80
2024-03-17T11:49:34.913Z,8.87
2024-03-17T11:50:34.926Z,8.90
2024-03-17T11:51:34.947Z,8.90
2024-03-17T11:52:34.989Z,8.93
2024-03-17T11:53:35.029Z,8.99
2024-03-17T11:54:35.025Z,9.09
2024-03-17T11:55:35.065Z,9.18
2024-03-17T11:56:35.085Z,9.28
2024-03-17T11:57:35.126Z,9.42
2024-03-17T11:58:35.184Z,9.56
2024-03-17T11:59:35.188Z,9.57
2024-03-17T12:00:35.222Z,9.51
2024-03-17T12:01:35.261Z,9.36
2024-03-17T12:02:35.320Z,9.35
2024-03-17T12:03:35.348Z,9.33
2024-03-17T12:04:35.337Z,9.39
2024-03-17T12:05:35.331Z,9.46
2024-03-17T12:06:35.346Z,9.53
2024-03-17T12:07:35.406Z,9.60
2024-03-17T12:08:35.422Z,9.67
2024-03-17T12:09:35.450Z,9.72
2024-03-17T12:10:35.460Z,9.77
2024-03-17T12:11:35.480Z,9.85
2024-03-17T12:12:35.492Z,9.92
2024-03-17T12:13:35.557Z,9.99
2024-03-17T12:14:35.550Z,10.00
2024-03-17T12:15:35.556Z,10.00
2024-03-17T12:16:35.562Z,9.97
2024-03-17T12:17:35.594Z,9.96
2024-03-17T12:18:35.604Z,9.93
2024-03-17T12:19:35.654Z,9.92
2024-03-17T12:20:35.636Z,9.97
2024-03-17T12:21:35.652Z,10.00
2024-03-17T12:22:35.669Z,10.00
2024-03-17T12:23:35.695Z,10.03
2024-03-17T12:24:35.721Z,9.99
2024-03-17T12:25:35.730Z,9.94
2024-03-17T12:26:35.721Z,9.92
2024-03-17T12:27:35.768Z,9.94
2024-03-17T12:28:35.747Z,9.97
2024-03-17T12:29:35.790Z,9.99
2024-03-17T12:30:35.790Z,10.04
2024-03-17T12:31:35.798Z,10.06
2024-03-17T12:32:35.820Z,10.07
2024-03-17T12:33:35.846Z,10.04
2024-03-17T12:34:35.842Z,9.93
2024-03-17T12:35:35.862Z,9.72
2024-03-17T12:36:35.857Z,9.64
2024-03-17T12:37:35.863Z,9.59
2024-03-17T12:38:35.888Z,9.56
2024-03-17T12:39:35.923Z,9.56
2024-03-17T12:40:35.902Z,9.59
2024-03-17T12:41:35.922Z,9.66
2024-03-17T12:42:35.928Z,9.67
2024-03-17T12:43:35.948Z,9.69
2024-03-17T12:44:35.961Z,9.69
2024-03-17T12:45:35.972Z,9.72
2024-03-17T12:46:36.012Z,9.67
2024-03-17T12:47:35.994Z,9.72
2024-03-17T12:48:36.003Z,9.72
2024-03-17T12:49:36.027Z,9.74
2024-03-17T12:50:36.004Z,9.70
2024-03-17T12:51:36.030Z,9.67
2024-03-17T12:52:36.030Z,9.61
2024-03-17T12:53:36.036Z,9.60
2024-03-17T12:54:36.063Z,9.60
2024-03-17T12:55:36.052Z,9.57
2024-03-17T12:56:36.056Z,9.57
2024-03-17T12:57:36.081Z,9.56
2024-03-17T12:58:36.085Z,9.53
2024-03-17T12:59:36.122Z,9.56
2024-03-17T13:00:36.140Z,9.57
2024-03-17T13:01:36.119Z,9.56
2024-03-17T13:02:36.151Z,9.54
2024-03-17T13:03:36.167Z,9.56
2024-03-17T13:04:36.200Z,9.56
2024-03-17T13:05:36.207Z,9.56
2024-03-17T13:06:36.203Z,9.54
2024-03-17T13:07:36.235Z,9.53
2024-03-17T13:08:36.235Z,9.53
2024-03-17T13:09:36.274Z,9.53
2024-03-17T13:10:36.263Z,9.54
2024-03-17T13:11:36.275Z,9.53
2024-03-17T13:12:36.292Z,9.48
2024-03-17T13:13:38.211Z,9.41
2024-03-17T13:14:36.338Z,9.36
2024-03-17T13:15:36.367Z,9.30
2024-03-17T13:16:36.331Z,9.28
2024-03-17T13:17:36.357Z,9.28
2024-03-17T13:18:36.365Z,9.26
2024-03-17T13:19:36.418Z,9.21